Time;durP1;ratioP1;P1;durP2;ratioP2;P2;SDS_P1;SDS_P2;PMS_P1;PMS_P2;Temp;Humidity;BMP_temperature;BMP_pressure;BME280_temperature;BME280_humidity;BME280_pressure;Samples;Min_cycle;Max_cycle;Signal;HPM_P1;HPM_P2
2022/01/01 00:02:22;;;;;;;19.85;14.00;;;;;;;4.60;91.31;99317.03;5051110;28;20112;-59
2022/01/01 00:04:48;;;;;;;23.38;15.25;;;;;;;4.22;90.62;99274.53;5013524;28;20677;-59
2022/01/01 00:07:14;;;;;;;22.10;14.68;;;;;;;3.96;90.65;99211.69;5021914;28;20037;-58
2022/01/01 00:09:40;;;;;;;20.13;14.65;;;;;;;4.40;90.05;99295.81;5047721;28;20037;-59
2022/01/01 00:12:07;;;;;;;22.42;15.77;;;;;;;4.43;89.82;99313.69;4982474;28;20025;-59
2022/01/01 00:14:32;;;;;;;18.58;13.27;;;;;;;4.35;90.43;99305.56;5024317;28;20048;-59
2022/01/01 00:16:58;;;;;;;22.67;15.07;;;;;;;4.46;89.89;99311.84;5055098;28;20563;-59
2022/01/01 00:19:23;;;;;;;23.65;15.68;;;;;;;4.46;88.73;99311.84;5048499;28;20477;-58
2022/01/01 00:21:48;;;;;;;23.40;15.73;;;;;;;4.19;89.01;99304.78;5049507;28;20041;-59
2022/01/01 00:24:14;;;;;;;17.58;12.30;;;;;;;4.54;89.17;99304.47;5011506;28;20033;-59
2022/01/01 00:26:40;;;;;;;17.15;11.70;;;;;;;4.83;88.17;99300.19;5003145;28;20317;-58
2022/01/01 00:29:05;;;;;;;14.60;10.25;;;;;;;5.10;85.22;99292.56;5008782;28;20108;-59
2022/01/01 00:31:30;;;;;;;15.52;10.77;;;;;;;5.02;84.48;99245.81;5020887;28;20600;-59
2022/01/01 00:33:57;;;;;;;16.10;10.63;;;;;;;5.19;84.93;99292.00;5053753;28;20428;-59
2022/01/01 00:36:23;;;;;;;16.90;11.68;;;;;;;5.54;84.34;99298.47;5014618;28;20029;-59
2022/01/01 00:38:48;;;;;;;16.85;11.52;;;;;;;5.27;83.89;99245.09;5014174;28;21086;-60
2022/01/01 00:41:14;;;;;;;16.35;11.30;;;;;;;5.27;84.00;99255.41;5017497;28;20528;-59
2022/01/01 00:43:39;;;;;;;14.32;10.20;;;;;;;5.49;83.84;99292.75;5005985;28;20041;-59
2022/01/01 00:46:05;;;;;;;16.08;10.75;;;;;;;5.50;84.27;99287.50;5008850;28;20034;-59
2022/01/01 00:48:30;;;;;;;14.27;10.35;;;;;;;5.69;83.00;99300.06;5012879;28;20276;-58
2022/01/01 00:50:58;;;;;;;13.77;9.73;;;;;;;5.84;81.30;99300.88;5017504;28;20025;-59
2022/01/01 00:53:24;;;;;;;16.27;10.13;;;;;;;5.59;78.86;99247.41;5015249;28;20033;-59
2022/01/01 00:55:49;;;;;;;15.02;10.05;;;;;;;6.10;80.10;99299.22;5020123;28;20041;-59
2022/01/01 00:58:14;;;;;;;15.38;9.82;;;;;;;6.03;80.66;99302.31;5021443;28;20519;-59
2022/01/01 01:00:40;;;;;;;16.92;11.20;;;;;;;5.81;81.16;99272.69;4959940;28;20037;-59
2022/01/01 01:03:10;;;;;;;17.77;11.85;;;;;;;5.37;82.98;99242.78;5020981;28;20100;-59
2022/01/01 01:05:38;;;;;;;16.95;10.88;;;;;;;5.56;84.17;99300.03;5021867;28;20609;-59
2022/01/01 01:08:08;;;;;;;16.83;11.80;;;;;;;5.56;85.30;99299.19;5048473;28;20122;-59
2022/01/01 01:10:34;;;;;;;16.92;12.20;;;;;;;5.09;86.56;99251.41;5016662;28;20934;-59
2022/01/01 01:12:59;;;;;;;17.42;11.88;;;;;;;5.38;87.90;99301.16;5050492;28;20079;-60
2022/01/01 01:15:25;;;;;;;18.88;11.70;;;;;;;5.33;87.40;99304.03;5009355;28;20033;-59
2022/01/01 01:17:52;;;;;;;18.85;12.52;;;;;;;5.29;87.71;99305.13;5017031;28;20613;-59
2022/01/01 01:20:18;;;;;;;17.90;12.57;;;;;;;5.27;87.24;99288.13;5016022;28;20029;-59
2022/01/01 01:22:44;;;;;;;20.30;12.95;;;;;;;5.39;85.55;99308.81;5014803;28;20509;-59
2022/01/01 01:25:09;;;;;;;16.67;11.90;;;;;;;5.22;85.82;99300.44;5001521;28;20025;-59
2022/01/01 01:27:36;;;;;;;17.58;11.02;;;;;;;5.49;83.28;99305.66;5011622;28;20033;-59
2022/01/01 01:30:04;;;;;;;16.52;11.32;;;;;;;5.37;83.55;99296.94;5015065;28;20111;-59
2022/01/01 01:32:30;;;;;;;17.85;11.82;;;;;;;5.31;84.33;99305.91;4994406;28;20062;-59
2022/01/01 01:34:55;;;;;;;15.95;10.95;;;;;;;5.33;83.23;99303.19;5013989;28;20128;-60
2022/01/01 01:37:23;;;;;;;17.33;11.57;;;;;;;5.41;83.07;99298.41;5013473;28;20053;-59
2022/01/01 01:39:49;;;;;;;16.45;10.88;;;;;;;5.35;82.16;99270.44;5012417;28;20587;-59
2022/01/01 01:42:15;;;;;;;17.83;11.45;;;;;;;5.53;82.60;99294.22;5021201;28;20418;-59
2022/01/01 01:44:44;;;;;;;18.17;11.13;;;;;;;5.49;82.58;99292.75;5015045;28;20030;-59
2022/01/01 01:47:16;;;;;;;16.07;11.37;;;;;;;5.70;81.37;99290.59;4993387;28;20112;-59
2022/01/01 01:49:44;;;;;;;16.88;11.00;;;;;;;5.84;80.29;99300.88;5013367;28;20092;-59
2022/01/01 01:52:11;;;;;;;15.63;10.18;;;;;;;5.96;79.71;99286.38;5018591;28;20022;-59
2022/01/01 01:54:37;;;;;;;15.48;10.45;;;;;;;5.99;80.66;99291.34;5012323;28;20033;-59
2022/01/01 01:57:03;;;;;;;16.08;10.95;;;;;;;5.87;82.36;99289.53;5015490;28;20032;-59
2022/01/01 01:59:28;;;;;;;15.57;10.23;;;;;;;5.89;79.79;99285.09;5045398;28;20477;-59
2022/01/01 02:01:54;;;;;;;14.80;9.50;;;;;;;6.02;79.20;99282.56;5018408;28;20029;-59
2022/01/01 02:04:19;;;;;;;16.00;9.93;;;;;;;5.67;78.64;99215.97;4959032;28;20708;-59
2022/01/01 02:06:45;;;;;;;13.68;9.27;;;;;;;6.15;77.84;99270.50;5042561;28;20075;-59
2022/01/01 02:09:11;;;;;;;14.73;9.98;;;;;;;5.63;79.21;99207.59;5023509;28;20049;-59
2022/01/01 02:11:38;;;;;;;13.10;8.43;;;;;;;5.97;75.70;99255.31;5025077;28;20094;-61
2022/01/01 02:14:09;;;;;;;11.10;7.22;;;;;;;5.96;74.73;99258.81;5057510;28;20037;-60
2022/01/01 02:19:19;;;;;;;12.18;7.13;;;;;;;6.39;72.55;99251.75;4951251;28;20156;-60
2022/01/01 02:21:44;;;;;;;13.13;7.85;;;;;;;6.30;73.14;99242.88;5020892;28;20062;-61
2022/01/01 02:24:10;;;;;;;13.38;8.35;;;;;;;6.27;72.44;99250.81;5025951;28;20059;-60
2022/01/01 02:26:35;;;;;;;13.40;8.35;;;;;;;6.28;73.62;99240.38;5020389;28;20025;-59
2022/01/01 02:29:03;;;;;;;12.82;7.95;;;;;;;6.25;72.75;99239.75;5023181;28;20032;-60
2022/01/01 02:31:31;;;;;;;13.93;9.10;;;;;;;5.91;76.38;99236.78;5016561;28;20128;-60
2022/01/01 02:34:05;;;;;;;11.88;7.68;;;;;;;5.81;76.62;99228.00;4992328;28;20047;-59
2022/01/01 02:36:32;;;;;;;15.85;10.25;;;;;;;5.76;77.79;99234.25;5010183;28;20033;-60
2022/01/01 02:38:58;;;;;;;16.08;10.48;;;;;;;5.23;77.69;99181.75;5049463;28;20033;-60
2022/01/01 02:41:23;;;;;;;14.38;9.25;;;;;;;5.39;78.69;99231.44;5013707;28;20041;-60
2022/01/01 02:43:48;;;;;;;15.02;8.88;;;;;;;5.82;76.51;99234.78;5015152;28;20033;-60
2022/01/01 02:46:14;;;;;;;16.38;10.75;;;;;;;6.25;76.24;99219.09;5017463;28;20370;-61
2022/01/01 02:48:39;;;;;;;15.45;10.10;;;;;;;6.13;76.09;99215.56;5012151;28;20076;-61
2022/01/01 02:51:05;;;;;;;15.20;9.40;;;;;;;5.94;77.48;99216.75;4959039;28;20111;-58
2022/01/01 02:53:30;;;;;;;16.70;10.70;;;;;;;5.69;80.18;99208.94;5003221;28;20034;-61
2022/01/01 02:55:55;;;;;;;17.77;10.90;;;;;;;5.70;80.43;99239.00;5011454;28;20068;-60
2022/01/01 02:58:21;;;;;;;15.05;10.13;;;;;;;5.58;79.67;99223.38;5015359;28;20116;-60
2022/01/01 03:00:46;;;;;;;16.05;10.70;;;;;;;5.66;79.52;99229.78;5013465;28;20106;-60
2022/01/01 03:03:12;;;;;;;18.23;11.32;;;;;;;5.59;79.21;99239.69;5019199;28;20079;-60
2022/01/01 03:05:37;;;;;;;16.02;9.80;;;;;;;5.57;76.61;99229.44;4964778;28;21935;-61
2022/01/01 03:08:04;;;;;;;15.70;10.45;;;;;;;5.59;77.29;99221.63;5007392;28;20104;-60
2022/01/01 03:10:29;;;;;;;15.98;10.70;;;;;;;5.51;78.27;99227.28;5009678;28;20142;-60
2022/01/01 03:12:55;;;;;;;15.48;9.98;;;;;;;5.54;77.14;99232.22;5017480;28;20476;-60
2022/01/01 03:15:20;;;;;;;16.95;10.80;;;;;;;5.53;77.65;99233.16;5016030;28;20028;-60
2022/01/01 03:17:45;;;;;;;17.27;11.45;;;;;;;5.05;78.26;99188.88;5043541;28;20037;-59
2022/01/01 03:20:11;;;;;;;17.33;11.55;;;;;;;5.32;79.50;99237.09;4994329;28;20034;-60
2022/01/01 03:22:36;;;;;;;18.10;12.32;;;;;;;5.11;79.67;99236.66;4991578;28;20503;-59
2022/01/01 03:25:02;;;;;;;15.80;10.70;;;;;;;5.14;79.17;99224.41;5015806;28;20084;-59
2022/01/01 03:27:28;;;;;;;15.65;10.63;;;;;;;5.24;78.51;99221.25;5015806;28;20037;-60
2022/01/01 03:29:53;;;;;;;16.27;10.30;;;;;;;5.53;78.71;99230.59;5008725;28;20040;-59
2022/01/01 03:32:18;;;;;;;15.80;9.80;;;;;;;5.65;79.04;99235.88;5013082;28;20037;-58
2022/01/01 03:34:44;;;;;;;16.08;10.80;;;;;;;5.73;79.32;99238.78;5013277;28;20108;-58
2022/01/01 03:37:09;;;;;;;16.80;10.55;;;;;;;5.67;79.00;99228.88;4992001;28;20470;-60
2022/01/01 03:39:35;;;;;;;17.98;10.90;;;;;;;5.71;80.49;99225.16;5020779;28;20085;-58
2022/01/01 03:42:00;;;;;;;16.45;10.95;;;;;;;5.63;81.61;99222.25;4999597;28;20120;-59
2022/01/01 03:44:26;;;;;;;17.20;11.02;;;;;;;5.59;81.25;99243.09;5013974;28;20061;-59
2022/01/01 03:46:55;;;;;;;16.65;10.60;;;;;;;5.56;80.39;99230.38;5009465;28;20034;-59
2022/01/01 03:49:20;;;;;;;17.17;10.63;;;;;;;5.47;80.78;99209.50;5045336;28;20068;-60
2022/01/01 03:51:46;;;;;;;15.57;10.50;;;;;;;5.48;81.43;99209.41;5015709;28;20656;-59
2022/01/01 03:54:12;;;;;;;15.88;10.20;;;;;;;5.48;80.49;99211.97;5021092;28;20048;-59
2022/01/01 03:56:38;;;;;;;14.90;10.10;;;;;;;5.30;81.70;99171.91;5014057;28;20038;-59
2022/01/01 03:59:03;;;;;;;16.83;10.82;;;;;;;5.48;81.13;99206.81;5018959;28;20083;-59
2022/01/01 04:01:29;;;;;;;16.58;10.27;;;;;;;5.38;80.68;99195.44;5016523;28;20026;-59
2022/01/01 04:03:54;;;;;;;14.75;9.35;;;;;;;5.47;79.20;99220.63;5020181;28;20063;-59
2022/01/01 04:06:19;;;;;;;14.05;8.90;;;;;;;5.48;79.11;99216.31;5015691;28;20076;-59
2022/01/01 04:08:45;;;;;;;13.88;8.45;;;;;;;5.44;78.16;99218.28;5003411;28;20021;-59
2022/01/01 04:11:11;;;;;;;12.73;8.50;;;;;;;5.12;77.73;99161.00;5016910;28;20041;-59
2022/01/01 04:13:36;;;;;;;14.13;8.88;;;;;;;5.45;78.63;99222.50;5013548;28;20040;-59
2022/01/01 04:16:02;;;;;;;14.93;8.73;;;;;;;5.41;80.14;99225.38;5015744;28;20164;-60
2022/01/01 04:18:38;;;;;;;14.00;9.10;;;;;;;5.47;79.31;99224.97;5013860;28;20049;-59
2022/01/01 04:21:08;;;;;;;13.15;8.38;;;;;;;5.38;79.42;99218.63;5013190;28;20108;-59
2022/01/01 04:23:33;;;;;;;;;;;;;;;5.31;79.98;99223.38;5016830;28;20033;-59
2022/01/01 04:25:59;;;;;;;13.27;8.00;;;;;;;5.32;81.73;99208.72;5036188;28;19963;-59
2022/01/01 04:28:24;;;;;;;15.25;8.57;;;;;;;5.18;82.29;99196.69;5021255;28;20040;-59
2022/01/01 04:30:49;;;;;;;12.93;7.80;;;;;;;5.17;80.36;99197.63;5017564;28;20079;-59
2022/01/01 04:33:15;;;;;;;12.05;7.55;;;;;;;5.25;79.82;99210.03;5021217;28;20471;-59
2022/01/01 04:35:40;;;;;;;12.68;7.47;;;;;;;5.17;79.61;99185.56;5014927;28;20029;-58
2022/01/01 04:38:12;;;;;;;11.35;6.90;;;;;;;5.39;79.05;99202.25;5022012;28;20116;-59
2022/01/01 04:40:37;;;;;;;11.77;8.18;;;;;;;5.40;78.78;99191.00;5009613;28;20700;-59
2022/01/01 04:43:03;;;;;;;13.98;8.02;;;;;;;5.47;80.14;99194.03;5018372;28;20039;-58
2022/01/01 04:45:28;;;;;;;12.70;7.70;;;;;;;5.46;80.69;99195.78;5044857;28;20072;-59
2022/01/01 04:47:54;;;;;;;10.30;6.65;;;;;;;5.49;79.29;99184.44;5021560;28;20048;-59
2022/01/01 04:50:19;;;;;;;11.48;6.63;;;;;;;5.32;78.04;99126.22;5019073;28;20033;-58
2022/01/01 04:52:45;;;;;;;9.52;5.72;;;;;;;5.39;74.85;99119.72;5014780;28;20475;-59
2022/01/01 04:55:11;;;;;;;10.63;5.00;;;;;;;5.93;70.58;99166.06;5018951;28;20036;-59
2022/01/01 04:57:36;;;;;;;9.52;4.85;;;;;;;5.99;69.63;99149.38;5006000;28;20033;-58
2022/01/01 05:00:02;;;;;;;8.40;4.60;;;;;;;6.24;70.00;99165.78;5022402;28;20747;-58
2022/01/01 05:02:28;;;;;;;9.10;5.00;;;;;;;5.99;71.84;99174.34;5014355;28;20042;-59
2022/01/01 05:04:54;;;;;;;7.50;4.18;;;;;;;6.05;69.05;99163.63;5017329;28;20049;-60
2022/01/01 05:07:19;;;;;;;9.32;5.15;;;;;;;5.88;70.98;99169.88;5047314;28;20176;-60
2022/01/01 05:09:45;;;;;;;6.78;3.47;;;;;;;5.85;66.89;99139.94;5020327;28;20420;-60
2022/01/01 05:12:10;;;;;;;6.07;2.70;;;;;;;6.15;65.49;99182.72;4965067;28;20066;-59
2022/01/01 05:14:36;;;;;;;6.00;2.90;;;;;;;5.52;64.65;99050.94;5019470;28;20577;-59
2022/01/01 05:17:01;;;;;;;6.05;2.70;;;;;;;6.72;63.30;99176.31;5019705;28;20474;-60
2022/01/01 05:19:27;;;;;;;5.85;2.80;;;;;;;7.07;61.61;99168.66;5016427;28;20210;-59
2022/01/01 05:21:55;;;;;;;6.47;3.08;;;;;;;6.72;62.38;99127.19;5015652;28;20029;-59
2022/01/01 05:24:21;;;;;;;5.85;3.00;;;;;;;7.22;61.44;99176.25;5015475;28;20060;-59
2022/01/01 05:26:47;;;;;;;6.65;3.20;;;;;;;7.17;63.37;99176.56;5021352;28;20715;-60
2022/01/01 05:29:12;;;;;;;7.15;3.72;;;;;;;6.68;65.90;99143.81;5008107;28;20029;-59
2022/01/01 05:31:38;;;;;;;7.60;3.90;;;;;;;6.61;66.39;99166.69;5003427;28;20021;-60
2022/01/01 05:34:03;;;;;;;8.25;4.32;;;;;;;6.40;68.51;99161.22;5016836;28;20036;-59
2022/01/01 05:36:29;;;;;;;7.63;3.97;;;;;;;6.33;69.26;99178.06;5020110;28;20403;-60
2022/01/01 05:38:55;;;;;;;8.15;4.07;;;;;;;6.25;70.16;99188.13;5003562;28;20320;-59
2022/01/01 05:41:21;;;;;;;8.43;4.75;;;;;;;6.11;71.86;99194.19;5015984;28;20025;-59
2022/01/01 05:43:46;;;;;;;9.40;5.20;;;;;;;5.98;73.30;99178.69;5007715;28;20052;-59
2022/01/01 05:46:12;;;;;;;9.43;5.47;;;;;;;5.85;74.25;99188.16;5014831;28;20060;-59
2022/01/01 05:48:38;;;;;;;9.25;5.50;;;;;;;5.85;74.35;99188.97;5020765;28;20447;-60
2022/01/01 05:51:04;;;;;;;10.02;5.43;;;;;;;5.81;74.17;99182.34;5001613;28;20040;-60
2022/01/01 05:53:29;;;;;;;9.00;5.13;;;;;;;5.45;73.95;99139.13;5015740;28;20056;-60
2022/01/01 05:55:55;;;;;;;9.48;5.07;;;;;;;5.59;74.85;99172.59;4999161;28;20460;-59
2022/01/01 05:58:20;;;;;;;9.07;5.20;;;;;;;5.60;74.55;99202.63;5013990;28;20034;-59
2022/01/01 06:00:46;;;;;;;8.57;4.78;;;;;;;5.39;75.20;99189.34;4993295;28;20037;-59
2022/01/01 06:03:11;;;;;;;8.90;4.82;;;;;;;5.28;75.75;99199.53;5018025;28;20026;-59
2022/01/01 06:05:37;;;;;;;10.60;5.80;;;;;;;5.06;76.53;99194.91;5015639;28;20026;-59
2022/01/01 06:08:03;;;;;;;10.88;6.47;;;;;;;5.00;76.79;99202.06;5013393;28;20155;-59
2022/01/01 06:10:29;;;;;;;12.90;7.47;;;;;;;4.92;76.12;99198.31;5018195;28;20519;-59
2022/01/01 06:12:54;;;;;;;13.60;8.15;;;;;;;4.60;76.16;99186.47;5016041;28;20030;-59
2022/01/01 06:15:21;;;;;;;13.20;8.25;;;;;;;4.61;77.15;99190.69;5035057;28;20034;-59
2022/01/01 06:17:46;;;;;;;15.20;8.45;;;;;;;4.40;78.16;99194.59;5003736;28;20037;-60
2022/01/01 06:20:12;;;;;;;11.95;7.85;;;;;;;4.48;77.20;99189.78;5049212;28;20460;-59
2022/01/01 06:22:38;;;;;;;13.73;8.52;;;;;;;4.10;77.55;99143.16;5039174;28;20025;-60
2022/01/01 06:25:04;;;;;;;14.10;9.60;;;;;;;4.24;78.83;99203.19;5011551;28;20998;-60
2022/01/01 06:27:30;;;;;;;13.73;9.02;;;;;;;4.27;78.41;99199.63;5009212;28;20034;-59
2022/01/01 06:29:55;;;;;;;14.85;8.80;;;;;;;4.31;78.44;99213.97;5010407;28;20503;-59
2022/01/01 06:32:21;;;;;;;14.93;8.80;;;;;;;4.28;78.90;99216.72;4962283;28;20046;-59
2022/01/01 06:34:46;;;;;;;13.00;8.65;;;;;;;4.14;78.54;99212.34;5011305;28;20037;-60
2022/01/01 06:37:12;;;;;;;14.00;8.45;;;;;;;4.04;79.11;99214.66;5046754;28;20042;-59
2022/01/01 06:39:37;;;;;;;13.23;8.40;;;;;;;3.85;79.27;99194.31;5042022;28;20695;-59
2022/01/01 06:42:03;;;;;;;13.98;8.90;;;;;;;3.93;79.18;99206.72;5007322;28;20037;-59
2022/01/01 06:44:28;;;;;;;16.00;8.77;;;;;;;4.03;79.20;99214.72;5011268;28;20793;-60
2022/01/01 06:46:53;;;;;;;14.77;8.77;;;;;;;4.03;78.59;99230.16;5000587;28;20499;-59
2022/01/01 06:49:20;;;;;;;14.35;8.43;;;;;;;3.53;80.09;99226.97;5014498;28;20033;-59
2022/01/01 06:51:45;;;;;;;12.48;7.82;;;;;;;3.64;80.00;99240.06;5011978;28;20033;-60
2022/01/01 06:54:11;;;;;;;14.20;8.98;;;;;;;3.69;79.14;99242.38;5013253;28;20709;-60
2022/01/01 06:56:36;;;;;;;13.55;7.97;;;;;;;3.60;80.02;99245.47;5014112;28;20482;-59
2022/01/01 06:59:02;;;;;;;14.93;9.07;;;;;;;3.44;79.83;99237.75;5043153;28;20028;-59
2022/01/01 07:01:28;;;;;;;15.90;8.43;;;;;;;3.20;81.00;99211.66;5015838;28;20135;-59
2022/01/01 07:03:53;;;;;;;12.90;8.52;;;;;;;3.42;80.53;99248.13;5006951;28;20480;-59
2022/01/01 07:06:18;;;;;;;13.98;8.88;;;;;;;3.01;80.50;99184.41;5012148;28;20033;-60
2022/01/01 07:08:44;;;;;;;13.00;8.23;;;;;;;3.33;80.96;99258.91;5012271;28;20026;-59
2022/01/01 07:11:09;;;;;;;13.63;8.07;;;;;;;3.14;80.77;99215.41;5017884;28;20388;-59
2022/01/01 07:13:35;;;;;;;13.40;7.90;;;;;;;3.06;80.43;99225.25;5015352;28;20100;-59
2022/01/01 07:16:00;;;;;;;13.10;7.90;;;;;;;3.34;79.77;99276.00;4996044;28;20124;-60
2022/01/01 07:18:25;;;;;;;12.88;8.18;;;;;;;3.22;80.63;99277.47;5006046;28;20483;-59
2022/01/01 07:20:51;;;;;;;12.77;7.80;;;;;;;3.35;80.53;99267.38;5014928;28;20022;-60
2022/01/01 07:23:16;;;;;;;12.50;8.13;;;;;;;3.41;80.46;99279.06;5021697;28;20512;-60
2022/01/01 07:25:42;;;;;;;13.40;8.32;;;;;;;3.42;79.76;99296.97;5011698;28;20116;-59
2022/01/01 07:28:09;;;;;;;14.70;8.32;;;;;;;3.37;80.14;99286.09;5016673;28;20031;-59
2022/01/01 07:30:35;;;;;;;12.77;7.68;;;;;;;3.41;79.90;99299.63;5014530;28;20072;-59
2022/01/01 07:33:00;;;;;;;15.52;8.60;;;;;;;3.36;79.93;99304.19;5045236;28;20536;-58
2022/01/01 07:35:26;;;;;;;13.75;8.60;;;;;;;3.25;80.36;99318.44;5000226;28;20043;-59
2022/01/01 07:37:52;;;;;;;16.85;9.02;;;;;;;3.01;81.52;99309.44;5013389;28;20539;-58
2022/01/01 07:40:18;;;;;;;15.23;8.98;;;;;;;3.05;82.08;99321.25;5016793;28;20044;-59
2022/01/01 07:42:44;;;;;;;14.40;8.40;;;;;;;3.25;82.35;99325.34;5004111;28;20033;-59
2022/01/01 07:45:11;;;;;;;13.07;8.55;;;;;;;3.17;82.49;99322.31;5018327;28;20029;-60
2022/01/01 07:47:37;;;;;;;13.65;9.00;;;;;;;2.64;82.63;99219.72;5021280;28;20029;-59
2022/01/01 07:50:07;;;;;;;14.70;9.13;;;;;;;3.22;81.68;99264.63;5032598;28;20077;-60
2022/01/01 07:52:33;;;;;;;13.45;8.38;;;;;;;3.59;82.21;99321.78;4970429;28;20094;-59
2022/01/01 07:54:58;;;;;;;13.07;8.50;;;;;;;3.49;81.78;99328.34;5014745;28;20045;-60
2022/01/01 07:57:23;;;;;;;13.10;8.20;;;;;;;3.46;80.60;99326.75;5034380;28;20033;-59
2022/01/01 07:59:50;;;;;;;14.63;8.55;;;;;;;3.53;81.53;99329.81;5025905;28;20041;-59
2022/01/01 08:02:15;;;;;;;13.90;8.98;;;;;;;3.49;81.81;99320.63;5012592;28;20799;-59
2022/01/01 08:04:41;;;;;;;13.68;8.32;;;;;;;3.66;81.59;99328.25;5015451;28;20056;-60
2022/01/01 08:07:06;;;;;;;14.13;8.43;;;;;;;3.52;81.74;99323.00;5005885;28;20069;-59
2022/01/01 08:09:32;;;;;;;14.02;8.55;;;;;;;3.29;81.90;99275.41;5006262;28;20465;-59
2022/01/01 08:11:57;;;;;;;13.88;8.30;;;;;;;3.74;80.77;99315.00;5014526;28;20033;-58
2022/01/01 08:14:23;;;;;;;14.77;8.18;;;;;;;3.66;81.01;99319.72;5019599;28;20424;-59
2022/01/01 08:17:02;;;;;;;13.05;8.43;;;;;;;3.63;80.81;99310.44;5018266;28;20041;-59
2022/01/01 08:19:28;;;;;;;13.90;8.52;;;;;;;3.73;81.29;99335.66;5018882;28;20037;-59
2022/01/01 08:21:54;;;;;;;14.80;8.70;;;;;;;3.79;80.63;99338.69;5003853;28;20038;-59
2022/01/01 08:24:20;;;;;;;13.63;9.40;;;;;;;3.81;81.03;99333.47;5040179;28;20084;-59
2022/01/01 08:26:45;;;;;;;16.95;10.25;;;;;;;3.66;81.60;99342.84;5015219;28;20524;-59
2022/01/01 08:29:11;;;;;;;17.20;10.05;;;;;;;3.73;80.67;99331.31;4962521;28;20046;-59
2022/01/01 08:31:37;;;;;;;14.30;8.82;;;;;;;3.72;80.80;99352.81;5016196;28;20033;-58
2022/01/01 08:34:02;;;;;;;16.05;8.57;;;;;;;3.73;81.70;99351.06;5013870;28;20037;-59
2022/01/01 08:36:27;;;;;;;13.90;9.48;;;;;;;3.71;81.61;99347.75;5016624;28;20037;-59
2022/01/01 08:38:53;;;;;;;17.70;11.77;;;;;;;3.64;81.76;99357.53;5019316;28;20079;-58
2022/01/01 08:41:18;;;;;;;19.30;12.23;;;;;;;3.37;81.99;99314.38;5017183;28;20032;-59
2022/01/01 08:43:43;;;;;;;20.23;12.65;;;;;;;3.72;81.89;99360.50;4994582;28;20034;-59
2022/01/01 08:46:10;;;;;;;19.08;12.05;;;;;;;3.42;82.26;99309.84;5014916;28;20358;-59
2022/01/01 08:48:35;;;;;;;16.92;10.95;;;;;;;3.72;82.45;99365.66;5015298;28;20061;-58
2022/01/01 08:51:21;;;;;;;19.48;10.95;;;;;;;3.89;81.49;99361.34;5018606;28;20134;-59
2022/01/01 08:53:47;;;;;;;16.50;10.90;;;;;;;3.79;81.93;99363.59;5016016;28;20029;-59
2022/01/01 08:56:13;;;;;;;18.42;11.95;;;;;;;3.85;82.21;99361.53;5018382;28;20044;-59
2022/01/01 08:58:41;;;;;;;17.63;10.90;;;;;;;3.88;82.57;99362.28;5011129;28;20030;-60
2022/01/01 09:01:08;;;;;;;18.08;10.73;;;;;;;3.87;82.19;99351.16;5009091;28;20037;-59
2022/01/01 09:03:37;;;;;;;16.92;10.63;;;;;;;3.60;81.78;99314.91;5016252;28;20041;-59
2022/01/01 09:06:04;;;;;;;16.75;10.80;;;;;;;3.88;81.45;99359.69;5014103;28;20033;-59
2022/01/01 09:08:30;;;;;;;17.63;11.15;;;;;;;3.94;82.05;99356.78;5035621;28;20026;-60
2022/01/01 09:10:56;;;;;;;18.40;11.98;;;;;;;3.91;82.00;99347.50;5020503;28;20028;-58
2022/01/01 09:13:21;;;;;;;18.60;11.63;;;;;;;3.59;82.14;99303.78;5023865;28;20024;-58
2022/01/01 09:15:48;;;;;;;18.55;11.82;;;;;;;3.83;82.84;99358.22;5030913;28;20038;-58
2022/01/01 09:18:13;;;;;;;14.50;9.43;;;;;;;3.92;82.60;99363.75;5014741;28;20033;-59
2022/01/01 09:20:39;;;;;;;16.55;10.18;;;;;;;3.86;83.08;99367.50;5048698;28;20032;-59
2022/01/01 09:23:04;;;;;;;14.43;10.00;;;;;;;3.91;83.13;99364.69;5021215;28;20029;-58
2022/01/01 09:25:29;;;;;;;14.30;9.73;;;;;;;3.92;83.54;99368.91;5016742;28;20033;-59
2022/01/01 09:27:55;;;;;;;15.95;9.98;;;;;;;3.92;83.06;99384.34;5016752;28;20053;-58
2022/01/01 09:30:20;;;;;;;16.20;9.60;;;;;;;4.02;83.47;99378.59;4982851;28;20368;-60
2022/01/01 09:32:46;;;;;;;16.85;9.80;;;;;;;4.10;83.81;99379.94;4997020;28;20481;-59
2022/01/01 09:35:13;;;;;;;15.38;10.32;;;;;;;4.19;83.78;99379.41;5002123;28;20181;-59
2022/01/01 09:37:38;;;;;;;15.80;9.80;;;;;;;3.79;84.53;99381.59;5015581;28;20037;-59
2022/01/01 09:40:04;;;;;;;14.73;8.93;;;;;;;3.57;84.51;99333.88;5017361;28;20033;-59
2022/01/01 09:42:30;;;;;;;14.05;9.35;;;;;;;3.95;84.93;99381.63;5019256;28;20033;-59
2022/01/01 09:44:56;;;;;;;15.60;8.73;;;;;;;3.91;85.36;99387.84;5017800;28;20033;-59
2022/01/01 09:47:22;;;;;;;14.43;9.18;;;;;;;3.66;85.44;99332.56;5002240;28;20030;-58
2022/01/01 09:49:48;;;;;;;14.57;8.55;;;;;;;3.98;84.96;99381.41;5008253;28;20515;-59
2022/01/01 09:52:14;;;;;;;14.20;8.40;;;;;;;4.03;85.64;99377.72;5011423;28;20034;-60
2022/01/01 09:54:41;;;;;;;14.02;8.63;;;;;;;3.85;85.44;99332.38;5011944;28;20053;-58
2022/01/01 09:57:07;;;;;;;13.45;8.02;;;;;;;4.27;83.99;99386.72;5013809;28;20109;-59
2022/01/01 09:59:33;;;;;;;11.73;7.22;;;;;;;4.27;84.35;99385.00;5029423;28;20406;-59
2022/01/01 10:01:59;;;;;;;12.90;8.15;;;;;;;4.16;83.64;99371.88;4994849;28;20033;-59
2022/01/01 10:04:24;;;;;;;13.05;6.80;;;;;;;4.14;83.34;99379.66;5016742;28;20037;-59
2022/01/01 10:07:06;;;;;;;12.82;6.65;;;;;;;4.31;82.92;99385.63;5019530;28;20472;-59
2022/01/01 10:09:36;;;;;;;10.40;6.40;;;;;;;4.10;83.03;99346.47;5017375;28;20502;-58
2022/01/01 10:12:06;;;;;;;15.13;9.00;;;;;;;4.57;81.97;99399.63;5013444;28;20067;-59
2022/01/01 10:14:40;;;;;;;14.07;8.40;;;;;;;4.34;81.50;99346.84;5014501;28;20030;-59
2022/01/01 10:17:20;;;;;;;18.83;12.00;;;;;;;4.65;81.35;99400.00;5008309;28;20037;-59
2022/01/01 10:19:49;;;;;;;14.85;9.43;;;;;;;4.71;79.09;99393.66;5003469;28;20047;-58
2022/01/01 10:22:19;;;;;;;13.57;9.60;;;;;;;4.57;79.53;99345.53;5042791;28;20526;-58
2022/01/01 10:27:47;;;;;;;13.98;6.50;;;;;;;5.08;79.40;99392.34;5006480;28;20108;-58
2022/01/01 10:30:36;;;;;;;11.13;5.28;;;;;;;5.23;79.13;99395.78;5014469;28;20044;-58
2022/01/01 10:33:12;;;;;;;8.80;3.90;;;;;;;5.45;77.90;99400.47;5011112;28;20128;-58
2022/01/01 10:35:46;;;;;;;9.73;3.60;;;;;;;5.51;77.55;99388.94;5027161;28;20068;-58
2022/01/01 10:38:18;;;;;;;9.65;3.97;;;;;;;5.63;76.98;99387.38;5020116;28;20116;-59
2022/01/01 10:40:44;;;;;;;11.57;4.00;;;;;;;5.70;76.04;99378.34;5049040;28;20035;-60
2022/01/01 10:43:10;;;;;;;8.15;4.10;;;;;;;5.71;75.53;99360.19;5010579;28;20152;-59
2022/01/01 10:45:38;;;;;;;8.10;4.10;;;;;;;5.96;73.40;99328.50;5007074;28;20124;-59
2022/01/01 10:48:39;;;;;;;11.27;4.75;;;;;;;6.55;74.50;99335.06;5015117;28;20021;-59
2022/01/01 10:51:09;;;;;;;8.25;3.92;;;;;;;7.00;72.92;99373.47;5015931;28;20034;-59
2022/01/01 10:53:35;;;;;;;11.15;3.33;;;;;;;6.52;72.02;99325.75;5007536;28;20017;-59
2022/01/01 10:56:03;;;;;;;8.45;3.45;;;;;;;6.93;70.60;99373.84;4993709;28;20049;-58
2022/01/01 10:58:34;;;;;;;8.70;3.45;;;;;;;6.93;72.69;99379.03;5010769;28;20038;-59
2022/01/01 11:01:05;;;;;;;8.55;3.35;;;;;;;6.95;70.43;99370.34;5008073;28;20029;-59
2022/01/01 11:03:41;;;;;;;9.65;3.80;;;;;;;7.04;70.21;99370.56;5013146;28;20042;-59
2022/01/01 11:06:10;;;;;;;9.98;3.40;;;;;;;7.14;68.58;99375.94;4996062;28;20111;-58
2022/01/01 11:08:40;;;;;;;7.25;3.10;;;;;;;7.19;67.22;99380.78;5028279;28;20044;-59
2022/01/01 11:11:06;;;;;;;6.80;3.28;;;;;;;7.24;68.00;99376.13;5049152;28;20060;-59
2022/01/01 11:13:33;;;;;;;6.78;2.97;;;;;;;7.35;66.44;99376.22;5044583;28;20116;-58
2022/01/01 11:15:59;;;;;;;9.10;3.88;;;;;;;7.31;65.40;99341.16;5018031;28;20076;-59
2022/01/01 11:18:25;;;;;;;9.13;3.97;;;;;;;6.87;64.47;99255.34;5010807;28;20188;-59
2022/01/01 11:20:51;;;;;;;8.27;3.72;;;;;;;7.36;64.03;99326.16;5003874;28;20193;-59
2022/01/01 11:23:18;;;;;;;9.88;3.78;;;;;;;7.72;64.32;99367.66;5018072;28;20530;-58
2022/01/01 11:25:44;;;;;;;10.25;3.65;;;;;;;7.72;64.35;99360.75;5013837;28;20499;-59
2022/01/01 11:28:13;;;;;;;7.47;3.40;;;;;;;7.67;65.19;99360.25;5019573;28;20017;-60
2022/01/01 11:31:00;;;;;;;8.23;3.13;;;;;;;7.66;64.65;99363.75;5023488;28;20030;-59
2022/01/01 11:33:31;;;;;;;8.13;3.45;;;;;;;7.77;65.76;99357.81;5030482;28;20030;-60
2022/01/01 11:35:58;;;;;;;12.85;3.40;;;;;;;7.79;65.84;99346.41;5011668;28;20034;-59